sensor_id;sensor_type;location;lat;lon;timestamp;P1;durP1;ratioP1;P2;durP2;ratioP2
3817;SDS011;1924;48.078;11.516;2023-07-22T04:00:52;35.50;;;0.80;;
3817;SDS011;1924;48.078;11.516;2023-07-22T04:03:19;35.70;;;0.80;;
3817;SDS011;1924;48.078;11.516;2023-07-22T04:05:52;35.70;;;0.80;;
3817;SDS011;1924;48.078;11.516;2023-07-22T04:08:20;35.50;;;0.90;;
3817;SDS011;1924;48.078;11.516;2023-07-22T04:10:50;35.50;;;0.80;;
3817;SDS011;1924;48.078;11.516;2023-07-22T04:13:18;35.50;;;0.80;;
3817;SDS011;1924;48.078;11.516;2023-07-22T04:15:44;35.47;;;0.87;;
3817;SDS011;1924;48.078;11.516;2023-07-22T04:18:13;35.40;;;0.80;;
3817;SDS011;1924;48.078;11.516;2023-07-22T04:20:41;35.70;;;0.90;;
3817;SDS011;1924;48.078;11.516;2023-07-22T04:23:07;35.43;;;0.83;;
3817;SDS011;1924;48.078;11.516;2023-07-22T04:25:38;35.57;;;0.80;;
3817;SDS011;1924;48.078;11.516;2023-07-22T04:28:05;35.37;;;0.80;;
3817;SDS011;1924;48.078;11.516;2023-07-22T04:30:33;35.50;;;0.80;;
3817;SDS011;1924;48.078;11.516;2023-07-22T04:33:00;35.30;;;0.90;;
3817;SDS011;1924;48.078;11.516;2023-07-22T04:35:28;35.37;;;0.80;;
3817;SDS011;1924;48.078;11.516;2023-07-22T04:37:57;35.33;;;0.90;;
3817;SDS011;1924;48.078;11.516;2023-07-22T04:40:23;35.53;;;0.80;;
3817;SDS011;1924;48.078;11.516;2023-07-22T04:42:50;35.50;;;0.80;;
3817;SDS011;1924;48.078;11.516;2023-07-22T04:45:18;35.37;;;0.80;;
3817;SDS011;1924;48.078;11.516;2023-07-22T04:47:44;35.50;;;0.80;;
3817;SDS011;1924;48.078;11.516;2023-07-22T04:50:13;35.40;;;0.80;;
3817;SDS011;1924;48.078;11.516;2023-07-22T04:52:42;35.33;;;0.80;;
3817;SDS011;1924;48.078;11.516;2023-07-22T04:55:11;35.40;;;0.80;;
3817;SDS011;1924;48.078;11.516;2023-07-22T04:57:38;35.27;;;0.80;;
3817;SDS011;1924;48.078;11.516;2023-07-22T05:00:06;35.27;;;0.80;;
3817;SDS011;1924;48.078;11.516;2023-07-22T05:02:38;35.37;;;0.80;;
3817;SDS011;1924;48.078;11.516;2023-07-22T05:05:05;35.17;;;0.80;;
3817;SDS011;1924;48.078;11.516;2023-07-22T05:07:34;35.07;;;0.80;;
3817;SDS011;1924;48.078;11.516;2023-07-22T05:10:02;35.23;;;0.80;;
3817;SDS011;1924;48.078;11.516;2023-07-22T05:12:30;35.03;;;0.80;;
3817;SDS011;1924;48.078;11.516;2023-07-22T05:14:56;35.20;;;0.80;;
3817;SDS011;1924;48.078;11.516;2023-07-22T05:17:23;35.00;;;0.80;;
3817;SDS011;1924;48.078;11.516;2023-07-22T05:19:51;35.20;;;0.80;;
3817;SDS011;1924;48.078;11.516;2023-07-22T05:22:17;35.27;;;0.80;;
3817;SDS011;1924;48.078;11.516;2023-07-22T05:24:44;35.07;;;0.80;;
3817;SDS011;1924;48.078;11.516;2023-07-22T05:27:12;35.23;;;0.80;;
3817;SDS011;1924;48.078;11.516;2023-07-22T05:29:39;35.07;;;0.80;;
3817;SDS011;1924;48.078;11.516;2023-07-22T05:32:07;35.20;;;0.80;;
3817;SDS011;1924;48.078;11.516;2023-07-22T05:34:34;35.20;;;0.80;;
3817;SDS011;1924;48.078;11.516;2023-07-22T05:37:01;35.10;;;0.80;;
3817;SDS011;1924;48.078;11.516;2023-07-22T05:39:31;35.10;;;0.80;;
3817;SDS011;1924;48.078;11.516;2023-07-22T05:41:58;35.03;;;0.80;;
3817;SDS011;1924;48.078;11.516;2023-07-22T05:44:26;35.27;;;0.80;;
3817;SDS011;1924;48.078;11.516;2023-07-22T05:46:53;35.17;;;0.80;;
3817;SDS011;1924;48.078;11.516;2023-07-22T05:49:20;35.10;;;0.80;;
3817;SDS011;1924;48.078;11.516;2023-07-22T05:51:47;35.17;;;0.80;;
3817;SDS011;1924;48.078;11.516;2023-07-22T05:54:13;35.10;;;0.80;;
3817;SDS011;1924;48.078;11.516;2023-07-22T05:56:40;35.03;;;0.80;;
3817;SDS011;1924;48.078;11.516;2023-07-22T05:59:07;35.27;;;0.80;;
3817;SDS011;1924;48.078;11.516;2023-07-22T06:01:35;35.20;;;0.80;;
3817;SDS011;1924;48.078;11.516;2023-07-22T06:04:03;35.10;;;0.80;;
3817;SDS011;1924;48.078;11.516;2023-07-22T06:06:30;35.10;;;0.80;;
3817;SDS011;1924;48.078;11.516;2023-07-22T06:08:57;35.10;;;0.80;;
3817;SDS011;1924;48.078;11.516;2023-07-22T06:11:24;35.20;;;0.80;;
3817;SDS011;1924;48.078;11.516;2023-07-22T06:13:51;35.00;;;0.80;;
3817;SDS011;1924;48.078;11.516;2023-07-22T06:16:21;35.07;;;0.80;;
3817;SDS011;1924;48.078;11.516;2023-07-22T06:18:49;35.07;;;0.80;;
3817;SDS011;1924;48.078;11.516;2023-07-22T06:21:16;34.97;;;0.80;;
3817;SDS011;1924;48.078;11.516;2023-07-22T06:23:43;34.83;;;0.80;;
3817;SDS011;1924;48.078;11.516;2023-07-22T06:26:10;35.23;;;0.80;;
3817;SDS011;1924;48.078;11.516;2023-07-22T06:28:36;35.20;;;0.80;;
3817;SDS011;1924;48.078;11.516;2023-07-22T06:31:03;34.97;;;0.80;;
3817;SDS011;1924;48.078;11.516;2023-07-22T06:33:30;35.10;;;0.80;;
3817;SDS011;1924;48.078;11.516;2023-07-22T06:38:51;35.03;;;0.80;;
3817;SDS011;1924;48.078;11.516;2023-07-22T06:41:19;34.87;;;0.80;;
3817;SDS011;1924;48.078;11.516;2023-07-22T06:43:49;35.00;;;0.80;;
3817;SDS011;1924;48.078;11.516;2023-07-22T06:46:16;34.73;;;0.80;;
3817;SDS011;1924;48.078;11.516;2023-07-22T06:48:43;34.97;;;0.80;;
3817;SDS011;1924;48.078;11.516;2023-07-22T06:51:10;34.67;;;0.80;;
3817;SDS011;1924;48.078;11.516;2023-07-22T06:53:38;35.00;;;0.80;;
3817;SDS011;1924;48.078;11.516;2023-07-22T06:56:06;34.73;;;0.80;;
3817;SDS011;1924;48.078;11.516;2023-07-22T06:58:34;34.77;;;0.80;;
3817;SDS011;1924;48.078;11.516;2023-07-22T07:01:01;34.87;;;0.80;;
3817;SDS011;1924;48.078;11.516;2023-07-22T07:03:28;34.90;;;0.80;;
3817;SDS011;1924;48.078;11.516;2023-07-22T07:05:55;34.77;;;0.80;;
3817;SDS011;1924;48.078;11.516;2023-07-22T07:08:23;35.07;;;0.80;;
3817;SDS011;1924;48.078;11.516;2023-07-22T07:10:52;34.77;;;0.80;;
3817;SDS011;1924;48.078;11.516;2023-07-22T07:13:19;34.93;;;0.80;;
3817;SDS011;1924;48.078;11.516;2023-07-22T07:15:46;35.07;;;0.80;;
3817;SDS011;1924;48.078;11.516;2023-07-22T07:18:15;34.80;;;0.80;;
3817;SDS011;1924;48.078;11.516;2023-07-22T07:20:42;35.00;;;0.80;;
3817;SDS011;1924;48.078;11.516;2023-07-22T07:23:09;34.90;;;0.80;;
3817;SDS011;1924;48.078;11.516;2023-07-22T07:25:36;34.97;;;0.80;;
3817;SDS011;1924;48.078;11.516;2023-07-22T07:28:05;35.03;;;0.80;;
3817;SDS011;1924;48.078;11.516;2023-07-22T07:30:31;35.00;;;0.80;;
3817;SDS011;1924;48.078;11.516;2023-07-22T07:32:58;34.87;;;0.80;;
3817;SDS011;1924;48.078;11.516;2023-07-22T07:35:31;34.73;;;0.80;;
3817;SDS011;1924;48.078;11.516;2023-07-22T07:38:01;34.77;;;0.80;;
3817;SDS011;1924;48.078;11.516;2023-07-22T07:40:28;35.00;;;0.80;;
3817;SDS011;1924;48.078;11.516;2023-07-22T07:42:57;34.93;;;0.80;;
3817;SDS011;1924;48.078;11.516;2023-07-22T07:45:25;34.97;;;0.80;;
3817;SDS011;1924;48.078;11.516;2023-07-22T07:47:54;35.03;;;0.80;;
3817;SDS011;1924;48.078;11.516;2023-07-22T07:50:21;34.87;;;0.80;;
3817;SDS011;1924;48.078;11.516;2023-07-22T07:52:48;34.83;;;0.80;;
3817;SDS011;1924;48.078;11.516;2023-07-22T07:55:14;35.17;;;0.80;;
3817;SDS011;1924;48.078;11.516;2023-07-22T07:57:41;35.03;;;0.80;;
3817;SDS011;1924;48.078;11.516;2023-07-22T08:00:08;35.10;;;0.80;;
3817;SDS011;1924;48.078;11.516;2023-07-22T08:02:37;35.27;;;0.80;;
3817;SDS011;1924;48.078;11.516;2023-07-22T08:05:04;35.30;;;0.80;;
3817;SDS011;1924;48.078;11.516;2023-07-22T08:07:31;35.17;;;0.80;;
3817;SDS011;1924;48.078;11.516;2023-07-22T08:09:58;35.23;;;0.80;;
3817;SDS011;1924;48.078;11.516;2023-07-22T08:12:39;35.17;;;0.80;;
3817;SDS011;1924;48.078;11.516;2023-07-22T08:15:06;35.30;;;0.80;;
3817;SDS011;1924;48.078;11.516;2023-07-22T08:17:40;35.13;;;0.80;;
3817;SDS011;1924;48.078;11.516;2023-07-22T08:20:08;35.37;;;0.80;;
3817;SDS011;1924;48.078;11.516;2023-07-22T08:22:35;35.30;;;0.80;;
3817;SDS011;1924;48.078;11.516;2023-07-22T08:25:02;34.70;;;0.80;;
3817;SDS011;1924;48.078;11.516;2023-07-22T08:27:58;34.93;;;0.80;;
3817;SDS011;1924;48.078;11.516;2023-07-22T08:30:25;35.20;;;0.80;;
3817;SDS011;1924;48.078;11.516;2023-07-22T08:32:53;35.23;;;0.80;;
3817;SDS011;1924;48.078;11.516;2023-07-22T08:35:20;35.23;;;0.80;;
3817;SDS011;1924;48.078;11.516;2023-07-22T08:37:47;35.17;;;0.80;;
3817;SDS011;1924;48.078;11.516;2023-07-22T08:40:14;35.30;;;0.80;;
3817;SDS011;1924;48.078;11.516;2023-07-22T08:42:47;34.97;;;0.80;;
3817;SDS011;1924;48.078;11.516;2023-07-22T08:45:16;35.10;;;0.80;;
3817;SDS011;1924;48.078;11.516;2023-07-22T08:47:46;34.90;;;0.80;;
3817;SDS011;1924;48.078;11.516;2023-07-22T08:50:19;35.07;;;0.80;;
3817;SDS011;1924;48.078;11.516;2023-07-22T08:52:52;35.20;;;0.80;;
3817;SDS011;1924;48.078;11.516;2023-07-22T08:55:19;34.93;;;0.80;;
3817;SDS011;1924;48.078;11.516;2023-07-22T08:57:47;35.20;;;0.80;;
3817;SDS011;1924;48.078;11.516;2023-07-22T09:00:16;35.10;;;0.80;;
3817;SDS011;1924;48.078;11.516;2023-07-22T09:02:43;35.13;;;0.80;;
3817;SDS011;1924;48.078;11.516;2023-07-22T09:05:11;35.20;;;0.80;;
3817;SDS011;1924;48.078;11.516;2023-07-22T09:07:39;35.07;;;0.80;;
3817;SDS011;1924;48.078;11.516;2023-07-22T09:10:13;35.10;;;0.80;;
3817;SDS011;1924;48.078;11.516;2023-07-22T09:12:41;35.10;;;0.80;;
3817;SDS011;1924;48.078;11.516;2023-07-22T09:15:09;35.27;;;0.80;;
3817;SDS011;1924;48.078;11.516;2023-07-22T09:17:37;35.30;;;0.80;;
3817;SDS011;1924;48.078;11.516;2023-07-22T09:20:06;35.30;;;0.80;;
3817;SDS011;1924;48.078;11.516;2023-07-22T09:22:33;35.10;;;0.80;;
3817;SDS011;1924;48.078;11.516;2023-07-22T09:25:13;35.17;;;0.80;;
3817;SDS011;1924;48.078;11.516;2023-07-22T09:27:41;35.17;;;0.80;;
3817;SDS011;1924;48.078;11.516;2023-07-22T09:30:19;35.10;;;0.80;;
3817;SDS011;1924;48.078;11.516;2023-07-22T09:32:48;35.13;;;0.80;;
3817;SDS011;1924;48.078;11.516;2023-07-22T09:35:15;34.97;;;0.80;;
3817;SDS011;1924;48.078;11.516;2023-07-22T09:37:42;35.00;;;0.80;;
3817;SDS011;1924;48.078;11.516;2023-07-22T09:40:17;34.87;;;0.80;;
3817;SDS011;1924;48.078;11.516;2023-07-22T09:42:46;34.80;;;0.80;;
3817;SDS011;1924;48.078;11.516;2023-07-22T09:45:14;34.73;;;0.80;;
3817;SDS011;1924;48.078;11.516;2023-07-22T09:47:42;34.63;;;0.80;;
3817;SDS011;1924;48.078;11.516;2023-07-22T09:50:16;34.77;;;0.80;;
3817;SDS011;1924;48.078;11.516;2023-07-22T09:52:47;34.77;;;0.80;;
3817;SDS011;1924;48.078;11.516;2023-07-22T09:55:15;34.87;;;0.80;;
3817;SDS011;1924;48.078;11.516;2023-07-22T09:57:45;34.57;;;0.80;;
3817;SDS011;1924;48.078;11.516;2023-07-22T10:00:18;34.67;;;0.80;;
3817;SDS011;1924;48.078;11.516;2023-07-22T10:02:45;34.80;;;0.80;;
3817;SDS011;1924;48.078;11.516;2023-07-22T10:05:15;34.90;;;0.80;;
3817;SDS011;1924;48.078;11.516;2023-07-22T10:07:44;34.73;;;0.80;;
3817;SDS011;1924;48.078;11.516;2023-07-22T10:10:12;34.53;;;0.80;;
3817;SDS011;1924;48.078;11.516;2023-07-22T10:12:42;34.90;;;0.80;;
3817;SDS011;1924;48.078;11.516;2023-07-22T10:15:12;34.77;;;0.80;;
3817;SDS011;1924;48.078;11.516;2023-07-22T10:17:41;34.80;;;0.80;;
3817;SDS011;1924;48.078;11.516;2023-07-22T10:20:10;34.97;;;0.80;;
3817;SDS011;1924;48.078;11.516;2023-07-22T10:22:40;34.77;;;0.80;;
3817;SDS011;1924;48.078;11.516;2023-07-22T10:25:15;34.87;;;0.80;;
3817;SDS011;1924;48.078;11.516;2023-07-22T10:27:46;35.03;;;0.80;;
3817;SDS011;1924;48.078;11.516;2023-07-22T10:30:14;34.87;;;0.80;;
3817;SDS011;1924;48.078;11.516;2023-07-22T10:32:43;34.87;;;0.80;;
3817;SDS011;1924;48.078;11.516;2023-07-22T10:35:12;35.10;;;0.80;;
3817;SDS011;1924;48.078;11.516;2023-07-22T10:37:49;35.20;;;0.80;;
3817;SDS011;1924;48.078;11.516;2023-07-22T10:40:19;35.20;;;0.80;;
3817;SDS011;1924;48.078;11.516;2023-07-22T10:42:54;35.27;;;0.80;;
3817;SDS011;1924;48.078;11.516;2023-07-22T10:45:24;35.27;;;0.80;;
3817;SDS011;1924;48.078;11.516;2023-07-22T10:47:59;35.33;;;0.80;;
3817;SDS011;1924;48.078;11.516;2023-07-22T10:50:41;35.37;;;0.80;;
3817;SDS011;1924;48.078;11.516;2023-07-22T10:53:10;35.43;;;0.80;;
3817;SDS011;1924;48.078;11.516;2023-07-22T10:58:33;35.33;;;0.80;;
3817;SDS011;1924;48.078;11.516;2023-07-22T11:01:22;35.27;;;0.80;;
3817;SDS011;1924;48.078;11.516;2023-07-22T11:04:05;35.13;;;0.80;;
3817;SDS011;1924;48.078;11.516;2023-07-22T11:06:51;35.20;;;0.80;;
3817;SDS011;1924;48.078;11.516;2023-07-22T11:09:32;35.27;;;0.80;;
3817;SDS011;1924;48.078;11.516;2023-07-22T11:12:04;35.13;;;0.80;;
3817;SDS011;1924;48.078;11.516;2023-07-22T11:14:34;35.33;;;0.80;;
3817;SDS011;1924;48.078;11.516;2023-07-22T11:17:04;35.30;;;0.80;;
3817;SDS011;1924;48.078;11.516;2023-07-22T11:19:33;35.27;;;0.80;;
3817;SDS011;1924;48.078;11.516;2023-07-22T11:22:00;35.40;;;0.80;;
3817;SDS011;1924;48.078;11.516;2023-07-22T11:24:28;35.37;;;0.80;;
3817;SDS011;1924;48.078;11.516;2023-07-22T11:26:55;35.33;;;0.80;;
3817;SDS011;1924;48.078;11.516;2023-07-22T11:29:22;35.30;;;0.80;;
3817;SDS011;1924;48.078;11.516;2023-07-22T11:31:51;35.50;;;0.80;;
3817;SDS011;1924;48.078;11.516;2023-07-22T11:34:18;35.47;;;0.80;;
3817;SDS011;1924;48.078;11.516;2023-07-22T11:36:46;35.67;;;0.80;;
3817;SDS011;1924;48.078;11.516;2023-07-22T11:39:15;35.57;;;0.80;;
3817;SDS011;1924;48.078;11.516;2023-07-22T11:41:43;35.37;;;0.80;;
3817;SDS011;1924;48.078;11.516;2023-07-22T11:44:10;35.63;;;0.80;;
3817;SDS011;1924;48.078;11.516;2023-07-22T11:46:46;35.47;;;0.80;;
3817;SDS011;1924;48.078;11.516;2023-07-22T11:49:15;35.57;;;0.80;;
3817;SDS011;1924;48.078;11.516;2023-07-22T11:51:48;35.57;;;0.80;;
3817;SDS011;1924;48.078;11.516;2023-07-22T11:54:17;35.43;;;0.80;;
3817;SDS011;1924;48.078;11.516;2023-07-22T11:56:46;35.50;;;0.80;;
3817;SDS011;1924;48.078;11.516;2023-07-22T11:59:13;35.70;;;0.80;;
3817;SDS011;1924;48.078;11.516;2023-07-22T12:01:44;35.43;;;0.80;;
3817;SDS011;1924;48.078;11.516;2023-07-22T12:04:12;35.40;;;0.80;;
3817;SDS011;1924;48.078;11.516;2023-07-22T12:06:41;35.43;;;0.80;;
3817;SDS011;1924;48.078;11.516;2023-07-22T12:09:08;35.27;;;0.80;;
3817;SDS011;1924;48.078;11.516;2023-07-22T12:11:35;35.33;;;0.80;;
3817;SDS011;1924;48.078;11.516;2023-07-22T12:14:09;35.47;;;0.80;;
3817;SDS011;1924;48.078;11.516;2023-07-22T12:16:37;35.47;;;0.80;;
3817;SDS011;1924;48.078;11.516;2023-07-22T12:19:05;35.47;;;0.80;;
3817;SDS011;1924;48.078;11.516;2023-07-22T12:21:33;35.33;;;0.80;;
3817;SDS011;1924;48.078;11.516;2023-07-22T12:24:01;35.40;;;0.80;;
3817;SDS011;1924;48.078;11.516;2023-07-22T12:26:29;35.40;;;0.80;;
3817;SDS011;1924;48.078;11.516;2023-07-22T12:28:56;35.50;;;0.80;;
3817;SDS011;1924;48.078;11.516;2023-07-22T12:31:24;35.50;;;0.80;;
3817;SDS011;1924;48.078;11.516;2023-07-22T12:33:51;35.57;;;0.80;;
3817;SDS011;1924;48.078;11.516;2023-07-22T12:36:18;35.37;;;0.80;;
3817;SDS011;1924;48.078;11.516;2023-07-22T12:38:44;35.63;;;0.80;;
3817;SDS011;1924;48.078;11.516;2023-07-22T12:41:14;35.60;;;0.80;;
3817;SDS011;1924;48.078;11.516;2023-07-22T12:43:41;35.67;;;0.80;;
3817;SDS011;1924;48.078;11.516;2023-07-22T12:46:08;35.57;;;0.80;;
3817;SDS011;1924;48.078;11.516;2023-07-22T12:48:35;35.73;;;0.80;;
3817;SDS011;1924;48.078;11.516;2023-07-22T12:51:02;35.83;;;0.80;;
3817;SDS011;1924;48.078;11.516;2023-07-22T12:53:29;35.67;;;0.80;;
3817;SDS011;1924;48.078;11.516;2023-07-22T12:55:55;35.77;;;0.80;;
3817;SDS011;1924;48.078;11.516;2023-07-22T12:58:26;35.80;;;0.80;;
3817;SDS011;1924;48.078;11.516;2023-07-22T13:00:53;36.00;;;0.80;;
3817;SDS011;1924;48.078;11.516;2023-07-22T13:03:20;35.87;;;0.80;;
3817;SDS011;1924;48.078;11.516;2023-07-22T13:05:47;35.67;;;0.80;;
3817;SDS011;1924;48.078;11.516;2023-07-22T13:08:14;35.80;;;0.80;;
3817;SDS011;1924;48.078;11.516;2023-07-22T13:10:41;35.70;;;0.80;;
3817;SDS011;1924;48.078;11.516;2023-07-22T13:13:12;35.67;;;0.80;;
3817;SDS011;1924;48.078;11.516;2023-07-22T13:15:40;35.47;;;0.80;;
3817;SDS011;1924;48.078;11.516;2023-07-22T13:18:07;35.57;;;0.80;;
3817;SDS011;1924;48.078;11.516;2023-07-22T13:20:33;35.50;;;0.80;;
3817;SDS011;1924;48.078;11.516;2023-07-22T13:23:00;35.67;;;0.80;;
3817;SDS011;1924;48.078;11.516;2023-07-22T13:25:27;35.27;;;0.80;;
3817;SDS011;1924;48.078;11.516;2023-07-22T13:27:55;35.40;;;0.80;;
3817;SDS011;1924;48.078;11.516;2023-07-22T13:30:22;35.43;;;0.80;;
3817;SDS011;1924;48.078;11.516;2023-07-22T13:32:50;35.40;;;0.80;;
3817;SDS011;1924;48.078;11.516;2023-07-22T13:35:17;35.37;;;0.80;;
3817;SDS011;1924;48.078;11.516;2023-07-22T13:37:45;35.40;;;0.80;;
3817;SDS011;1924;48.078;11.516;2023-07-22T13:40:11;35.40;;;0.80;;
3817;SDS011;1924;48.078;11.516;2023-07-22T13:42:38;35.57;;;0.80;;
3817;SDS011;1924;48.078;11.516;2023-07-22T13:45:06;35.77;;;0.80;;
3817;SDS011;1924;48.078;11.516;2023-07-22T13:47:35;35.47;;;0.80;;
3817;SDS011;1924;48.078;11.516;2023-07-22T13:50:04;35.70;;;0.80;;
3817;SDS011;1924;48.078;11.516;2023-07-22T13:52:31;35.67;;;0.80;;
3817;SDS011;1924;48.078;11.516;2023-07-22T13:54:58;35.83;;;0.80;;
3817;SDS011;1924;48.078;11.516;2023-07-22T13:57:25;35.87;;;0.80;;
3817;SDS011;1924;48.078;11.516;2023-07-22T13:59:51;35.83;;;0.80;;
3817;SDS011;1924;48.078;11.516;2023-07-22T14:02:18;35.77;;;0.80;;
3817;SDS011;1924;48.078;11.516;2023-07-22T14:04:45;35.83;;;0.80;;
3817;SDS011;1924;48.078;11.516;2023-07-22T14:07:13;35.90;;;0.80;;
3817;SDS011;1924;48.078;11.516;2023-07-22T14:09:41;35.70;;;0.80;;
3817;SDS011;1924;48.078;11.516;2023-07-22T14:12:08;35.70;;;0.80;;
3817;SDS011;1924;48.078;11.516;2023-07-22T14:14:35;35.80;;;0.80;;
3817;SDS011;1924;48.078;11.516;2023-07-22T14:17:01;35.73;;;0.80;;
3817;SDS011;1924;48.078;11.516;2023-07-22T14:19:29;35.77;;;0.80;;
3817;SDS011;1924;48.078;11.516;2023-07-22T14:21:56;35.77;;;0.80;;
3817;SDS011;1924;48.078;11.516;2023-07-22T14:24:24;35.90;;;0.80;;
3817;SDS011;1924;48.078;11.516;2023-07-22T14:26:51;35.87;;;0.80;;
3817;SDS011;1924;48.078;11.516;2023-07-22T14:29:18;35.73;;;0.80;;
3817;SDS011;1924;48.078;11.516;2023-07-22T14:31:45;35.87;;;0.80;;
3817;SDS011;1924;48.078;11.516;2023-07-22T14:34:12;35.93;;;0.80;;
3817;SDS011;1924;48.078;11.516;2023-07-22T14:36:39;35.80;;;0.80;;
3817;SDS011;1924;48.078;11.516;2023-07-22T14:39:07;35.83;;;0.80;;
3817;SDS011;1924;48.078;11.516;2023-07-22T14:41:35;35.93;;;0.80;;
3817;SDS011;1924;48.078;11.516;2023-07-22T14:44:02;35.63;;;0.80;;
3817;SDS011;1924;48.078;11.516;2023-07-22T14:46:29;35.53;;;0.80;;
3817;SDS011;1924;48.078;11.516;2023-07-22T14:48:56;35.90;;;0.80;;
3817;SDS011;1924;48.078;11.516;2023-07-22T14:51:22;35.80;;;0.80;;
3817;SDS011;1924;48.078;11.516;2023-07-22T14:53:49;35.77;;;0.80;;
3817;SDS011;1924;48.078;11.516;2023-07-22T14:56:16;35.77;;;0.80;;
3817;SDS011;1924;48.078;11.516;2023-07-22T14:58:44;35.77;;;0.80;;
3817;SDS011;1924;48.078;11.516;2023-07-22T15:01:11;35.87;;;0.80;;
3817;SDS011;1924;48.078;11.516;2023-07-22T15:03:38;35.97;;;0.80;;
3817;SDS011;1924;48.078;11.516;2023-07-22T15:06:05;35.87;;;0.80;;
3817;SDS011;1924;48.078;11.516;2023-07-22T15:08:32;35.73;;;0.80;;
3817;SDS011;1924;48.078;11.516;2023-07-22T15:10:59;35.87;;;0.80;;
3817;SDS011;1924;48.078;11.516;2023-07-22T15:13:26;35.90;;;0.80;;
3817;SDS011;1924;48.078;11.516;2023-07-22T15:15:54;35.83;;;0.80;;
3817;SDS011;1924;48.078;11.516;2023-07-22T15:18:22;35.93;;;0.80;;
3817;SDS011;1924;48.078;11.516;2023-07-22T15:20:49;35.87;;;0.80;;
3817;SDS011;1924;48.078;11.516;2023-07-22T15:23:17;35.80;;;0.80;;
3817;SDS011;1924;48.078;11.516;2023-07-22T15:25:45;36.00;;;0.80;;
3817;SDS011;1924;48.078;11.516;2023-07-22T15:28:12;36.17;;;0.80;;
3817;SDS011;1924;48.078;11.516;2023-07-22T15:30:39;36.00;;;0.80;;
3817;SDS011;1924;48.078;11.516;2023-07-22T15:33:07;36.07;;;0.80;;
3817;SDS011;1924;48.078;11.516;2023-07-22T15:35:34;36.17;;;0.80;;
3817;SDS011;1924;48.078;11.516;2023-07-22T15:38:01;36.17;;;0.80;;
3817;SDS011;1924;48.078;11.516;2023-07-22T15:40:28;36.07;;;0.80;;
3817;SDS011;1924;48.078;11.516;2023-07-22T15:43:00;36.20;;;0.80;;
3817;SDS011;1924;48.078;11.516;2023-07-22T15:45:27;35.90;;;0.80;;
3817;SDS011;1924;48.078;11.516;2023-07-22T15:47:54;35.97;;;0.80;;
3817;SDS011;1924;48.078;11.516;2023-07-22T15:50:22;36.03;;;0.80;;
3817;SDS011;1924;48.078;11.516;2023-07-22T15:52:49;36.03;;;0.80;;
3817;SDS011;1924;48.078;11.516;2023-07-22T15:55:16;35.97;;;0.80;;
3817;SDS011;1924;48.078;11.516;2023-07-22T15:57:42;36.10;;;0.80;;
3817;SDS011;1924;48.078;11.516;2023-07-22T16:00:10;36.17;;;0.80;;
3817;SDS011;1924;48.078;11.516;2023-07-22T16:02:37;36.27;;;0.80;;
3817;SDS011;1924;48.078;11.516;2023-07-22T16:05:05;36.27;;;0.80;;
3817;SDS011;1924;48.078;11.516;2023-07-22T16:07:34;36.13;;;0.80;;
3817;SDS011;1924;48.078;11.516;2023-07-22T16:10:02;36.23;;;0.80;;
3817;SDS011;1924;48.078;11.516;2023-07-22T16:12:30;35.97;;;0.80;;
3817;SDS011;1924;48.078;11.516;2023-07-22T16:14:56;36.30;;;0.80;;
3817;SDS011;1924;48.078;11.516;2023-07-22T16:17:23;36.37;;;0.80;;
3817;SDS011;1924;48.078;11.516;2023-07-22T16:19:50;36.17;;;0.80;;
3817;SDS011;1924;48.078;11.516;2023-07-22T16:22:17;36.20;;;0.80;;
3817;SDS011;1924;48.078;11.516;2023-07-22T16:24:45;36.17;;;0.80;;
3817;SDS011;1924;48.078;11.516;2023-07-22T16:27:12;36.17;;;0.80;;
3817;SDS011;1924;48.078;11.516;2023-07-22T16:29:39;36.40;;;0.80;;
3817;SDS011;1924;48.078;11.516;2023-07-22T16:32:06;36.27;;;0.80;;
3817;SDS011;1924;48.078;11.516;2023-07-22T16:34:33;36.37;;;0.80;;
3817;SDS011;1924;48.078;11.516;2023-07-22T16:37:00;35.97;;;0.80;;
3817;SDS011;1924;48.078;11.516;2023-07-22T16:39:27;36.20;;;0.80;;
3817;SDS011;1924;48.078;11.516;2023-07-22T16:41:56;36.17;;;0.80;;
3817;SDS011;1924;48.078;11.516;2023-07-22T16:44:22;36.13;;;0.80;;
3817;SDS011;1924;48.078;11.516;2023-07-22T16:46:50;36.20;;;0.80;;
3817;SDS011;1924;48.078;11.516;2023-07-22T16:49:20;36.10;;;0.80;;
3817;SDS011;1924;48.078;11.516;2023-07-22T16:51:47;36.30;;;0.80;;
3817;SDS011;1924;48.078;11.516;2023-07-22T16:54:14;36.13;;;0.80;;
3817;SDS011;1924;48.078;11.516;2023-07-22T16:56:40;36.37;;;0.80;;
3817;SDS011;1924;48.078;11.516;2023-07-22T16:59:09;36.20;;;0.80;;
3817;SDS011;1924;48.078;11.516;2023-07-22T17:01:36;36.27;;;0.80;;
3817;SDS011;1924;48.078;11.516;2023-07-22T17:04:03;36.27;;;0.80;;
3817;SDS011;1924;48.078;11.516;2023-07-22T17:06:31;36.40;;;0.80;;
3817;SDS011;1924;48.078;11.516;2023-07-22T17:08:58;36.27;;;0.80;;
3817;SDS011;1924;48.078;11.516;2023-07-22T17:11:25;36.40;;;0.80;;
3817;SDS011;1924;48.078;11.516;2023-07-22T17:13:52;36.40;;;0.80;;
3817;SDS011;1924;48.078;11.516;2023-07-22T17:16:20;36.20;;;0.80;;
3817;SDS011;1924;48.078;11.516;2023-07-22T17:18:47;36.50;;;0.80;;
3817;SDS011;1924;48.078;11.516;2023-07-22T17:21:14;36.00;;;0.80;;
3817;SDS011;1924;48.078;11.516;2023-07-22T17:23:43;36.53;;;0.80;;
3817;SDS011;1924;48.078;11.516;2023-07-22T17:26:10;36.47;;;0.80;;
3817;SDS011;1924;48.078;11.516;2023-07-22T17:28:37;36.50;;;0.80;;
3817;SDS011;1924;48.078;11.516;2023-07-22T17:31:04;36.17;;;0.80;;
3817;SDS011;1924;48.078;11.516;2023-07-22T17:33:32;36.47;;;0.80;;
3817;SDS011;1924;48.078;11.516;2023-07-22T17:35:59;36.57;;;0.80;;
3817;SDS011;1924;48.078;11.516;2023-07-22T17:38:26;36.27;;;0.80;;
3817;SDS011;1924;48.078;11.516;2023-07-22T17:40:53;36.33;;;0.80;;
3817;SDS011;1924;48.078;11.516;2023-07-22T17:43:21;36.13;;;0.80;;
3817;SDS011;1924;48.078;11.516;2023-07-22T17:45:48;36.37;;;0.80;;
3817;SDS011;1924;48.078;11.516;2023-07-22T17:48:15;36.43;;;0.80;;
3817;SDS011;1924;48.078;11.516;2023-07-22T17:50:43;36.53;;;0.80;;
3817;SDS011;1924;48.078;11.516;2023-07-22T17:53:13;36.60;;;0.80;;
3817;SDS011;1924;48.078;11.516;2023-07-22T17:55:39;36.43;;;0.80;;
3817;SDS011;1924;48.078;11.516;2023-07-22T17:58:08;36.43;;;0.80;;
3817;SDS011;1924;48.078;11.516;2023-07-22T18:00:38;36.33;;;0.80;;
3817;SDS011;1924;48.078;11.516;2023-07-22T18:03:05;36.60;;;0.80;;
3817;SDS011;1924;48.078;11.516;2023-07-22T18:05:32;36.57;;;0.80;;
3817;SDS011;1924;48.078;11.516;2023-07-22T18:08:03;36.57;;;0.80;;
3817;SDS011;1924;48.078;11.516;2023-07-22T18:10:30;36.00;;;0.80;;
3817;SDS011;1924;48.078;11.516;2023-07-22T18:12:57;36.43;;;0.80;;
3817;SDS011;1924;48.078;11.516;2023-07-22T18:15:24;36.13;;;0.80;;
3817;SDS011;1924;48.078;11.516;2023-07-22T18:17:51;36.40;;;0.80;;
3817;SDS011;1924;48.078;11.516;2023-07-22T18:20:18;36.37;;;0.80;;
3817;SDS011;1924;48.078;11.516;2023-07-22T18:22:45;36.27;;;0.80;;
3817;SDS011;1924;48.078;11.516;2023-07-22T18:25:16;36.47;;;0.80;;
3817;SDS011;1924;48.078;11.516;2023-07-22T18:27:43;36.47;;;0.80;;
3817;SDS011;1924;48.078;11.516;2023-07-22T18:30:10;36.47;;;0.80;;
3817;SDS011;1924;48.078;11.516;2023-07-22T18:32:40;36.40;;;0.80;;
3817;SDS011;1924;48.078;11.516;2023-07-22T18:35:08;36.27;;;0.80;;
3817;SDS011;1924;48.078;11.516;2023-07-22T18:37:36;36.37;;;0.80;;
3817;SDS011;1924;48.078;11.516;2023-07-22T18:40:03;36.37;;;0.80;;
3817;SDS011;1924;48.078;11.516;2023-07-22T18:42:32;36.47;;;0.80;;
3817;SDS011;1924;48.078;11.516;2023-07-22T18:44:59;36.17;;;0.80;;
3817;SDS011;1924;48.078;11.516;2023-07-22T18:47:26;36.37;;;0.80;;
3817;SDS011;1924;48.078;11.516;2023-07-22T18:49:53;36.30;;;0.80;;
3817;SDS011;1924;48.078;11.516;2023-07-22T18:52:20;36.37;;;0.80;;
3817;SDS011;1924;48.078;11.516;2023-07-22T18:54:56;36.60;;;0.80;;
3817;SDS011;1924;48.078;11.516;2023-07-22T18:57:22;36.43;;;0.80;;
3817;SDS011;1924;48.078;11.516;2023-07-22T18:59:51;36.53;;;0.80;;